SWA2893 KPHX-KLAX
Flight info
| Callsign | SWA2893 |
|---|---|
| Flight time | 0h 56m |
| Altitude | 32000 |
| Route | KEENS3 WLVRN ESTWD HLYWD1 |
| Aircraft | B737/M-SADE2E3GIJ4RWZ/LB1D1 |
Departure
| Time | 2026-05-06 01:17 |
|---|---|
| Airport | Phoenix Sky Harbor International Airport (KPHX) |
Arrival
| Time | 2026-05-06 02:13 |
|---|---|
| Airport | Los Angeles International Airport (KLAX) |
| Time | Latitude | Longitude | Altitude | Speed | Heading |
|---|---|---|---|---|---|
| 2026-05-05 22:27 | 33.43342 | -111.99946 | 1132 ft | 0 kts | 1° |
| 2026-05-06 01:04 | 33.43343 | -111.99946 | 1130 ft | 0 kts | 1° |
| 2026-05-06 01:09 | 33.43341 | -111.99947 | 1130 ft | 2 kts | 1° |
| 2026-05-06 01:09 | 33.43315 | -111.99948 | 1132 ft | 4 kts | 5° |
| 2026-05-06 01:09 | 33.43290 | -111.99954 | 1134 ft | 4 kts | 40° |
| 2026-05-06 01:09 | 33.43283 | -111.99967 | 1135 ft | 0 kts | 89° |
| 2026-05-06 01:14 | 33.43284 | -111.99914 | 1132 ft | 29 kts | 90° |
| 2026-05-06 01:14 | 33.43285 | -111.99498 | 1130 ft | 58 kts | 89° |
| 2026-05-06 01:15 | 33.43276 | -111.99236 | 1130 ft | 3 kts | 127° |
| 2026-05-06 01:15 | 33.43275 | -111.99236 | 1130 ft | 0 kts | 144° |
| 2026-05-06 01:15 | 33.43217 | -111.99248 | 1133 ft | 37 kts | 207° |
| 2026-05-06 01:16 | 33.43105 | -111.99484 | 1137 ft | 31 kts | 284° |
| 2026-05-06 01:16 | 33.43104 | -111.99930 | 1133 ft | 87 kts | 270° |
| 2026-05-06 01:16 | 33.43101 | -112.00903 | 1135 ft | 144 kts | 268° |
| 2026-05-06 01:16 | 33.43108 | -112.02188 | 1526 ft | 160 kts | 270° |
| 2026-05-06 01:17 | 33.43121 | -112.03399 | 2677 ft | 127 kts | 269° |
| 2026-05-06 01:17 | 33.43130 | -112.04432 | 3363 ft | 129 kts | 266° |
| 2026-05-06 01:17 | 33.43097 | -112.05593 | 3693 ft | 151 kts | 266° |
| 2026-05-06 01:17 | 33.42908 | -112.06951 | 3962 ft | 182 kts | 251° |
| 2026-05-06 01:18 | 33.42438 | -112.08480 | 4215 ft | 209 kts | 250° |
| 2026-05-06 01:18 | 33.41907 | -112.10241 | 4421 ft | 240 kts | 250° |
| 2026-05-06 01:18 | 33.41327 | -112.12165 | 5076 ft | 250 kts | 250° |
| 2026-05-06 01:18 | 33.40729 | -112.14137 | 5930 ft | 255 kts | 250° |
| 2026-05-06 01:19 | 33.40116 | -112.16161 | 6769 ft | 258 kts | 250° |
| 2026-05-06 01:19 | 33.39502 | -112.18185 | 7729 ft | 261 kts | 251° |
| 2026-05-06 01:19 | 33.39170 | -112.20332 | 8572 ft | 269 kts | 272° |
| 2026-05-06 01:19 | 33.39414 | -112.22591 | 9449 ft | 276 kts | 279° |
| 2026-05-06 01:20 | 33.39751 | -112.24839 | 10452 ft | 277 kts | 280° |
| 2026-05-06 01:20 | 33.40114 | -112.27183 | 10922 ft | 299 kts | 279° |
| 2026-05-06 01:20 | 33.40506 | -112.29729 | 11294 ft | 320 kts | 279° |
| 2026-05-06 01:20 | 33.40908 | -112.32371 | 12142 ft | 324 kts | 278° |
| 2026-05-06 01:21 | 33.41313 | -112.35044 | 13056 ft | 328 kts | 278° |
| 2026-05-06 01:21 | 33.41718 | -112.37753 | 13900 ft | 334 kts | 278° |
| 2026-05-06 01:21 | 33.42129 | -112.40520 | 14647 ft | 341 kts | 278° |
| 2026-05-06 01:21 | 33.42545 | -112.43334 | 15489 ft | 345 kts | 278° |
| 2026-05-06 01:22 | 33.42966 | -112.46178 | 16402 ft | 348 kts | 278° |
| 2026-05-06 01:22 | 33.43390 | -112.49049 | 17204 ft | 354 kts | 278° |
| 2026-05-06 01:22 | 33.43821 | -112.51969 | 18086 ft | 357 kts | 278° |
| 2026-05-06 01:22 | 33.44253 | -112.54908 | 18864 ft | 360 kts | 278° |
| 2026-05-06 01:23 | 33.44685 | -112.57862 | 19708 ft | 361 kts | 278° |
| 2026-05-06 01:23 | 33.45072 | -112.60823 | 20605 ft | 359 kts | 273° |
| 2026-05-06 01:23 | 33.45189 | -112.63805 | 21455 ft | 358 kts | 268° |
| 2026-05-06 01:23 | 33.45185 | -112.66752 | 22247 ft | 360 kts | 267° |
| 2026-05-06 01:24 | 33.45171 | -112.69761 | 23018 ft | 362 kts | 268° |
| 2026-05-06 01:24 | 33.45183 | -112.72787 | 23729 ft | 364 kts | 268° |
| 2026-05-06 01:24 | 33.45215 | -112.75820 | 24393 ft | 364 kts | 268° |
| 2026-05-06 01:24 | 33.45284 | -112.78855 | 25079 ft | 365 kts | 271° |
| 2026-05-06 01:25 | 33.45843 | -112.81853 | 25704 ft | 375 kts | 283° |
| 2026-05-06 01:25 | 33.46803 | -112.84772 | 26318 ft | 378 kts | 285° |
| 2026-05-06 01:25 | 33.47834 | -112.87675 | 26920 ft | 380 kts | 285° |
| 2026-05-06 01:25 | 33.48887 | -112.90582 | 27521 ft | 380 kts | 285° |
| 2026-05-06 01:26 | 33.49941 | -112.93501 | 28069 ft | 383 kts | 284° |
| 2026-05-06 01:26 | 33.50993 | -112.96441 | 28579 ft | 385 kts | 284° |
| 2026-05-06 01:26 | 33.52041 | -112.99391 | 29202 ft | 384 kts | 283° |
| 2026-05-06 01:26 | 33.53077 | -113.02324 | 29997 ft | 379 kts | 283° |
| 2026-05-06 01:27 | 33.54095 | -113.05214 | 30636 ft | 376 kts | 283° |
| 2026-05-06 01:27 | 33.55105 | -113.08098 | 31219 ft | 373 kts | 283° |
| 2026-05-06 01:27 | 33.56107 | -113.10974 | 31626 ft | 376 kts | 283° |
| 2026-05-06 01:27 | 33.57118 | -113.13893 | 31854 ft | 382 kts | 283° |
| 2026-05-06 01:28 | 33.59183 | -113.19861 | 31870 ft | 388 kts | 284° |
| 2026-05-06 01:28 | 33.61246 | -113.25784 | 31893 ft | 383 kts | 284° |
| 2026-05-06 01:29 | 33.63283 | -113.31668 | 31916 ft | 386 kts | 284° |
| 2026-05-06 01:29 | 33.65340 | -113.37619 | 31924 ft | 386 kts | 284° |
| 2026-05-06 01:30 | 33.67394 | -113.43574 | 31932 ft | 386 kts | 284° |
| 2026-05-06 01:30 | 33.69445 | -113.49532 | 31945 ft | 387 kts | 285° |
| 2026-05-06 01:31 | 33.71501 | -113.55514 | 31945 ft | 388 kts | 285° |
| 2026-05-06 01:31 | 33.73561 | -113.61521 | 31931 ft | 389 kts | 285° |
| 2026-05-06 01:32 | 33.75625 | -113.67549 | 31927 ft | 391 kts | 285° |
| 2026-05-06 01:32 | 33.77694 | -113.73602 | 31914 ft | 393 kts | 285° |
| 2026-05-06 01:33 | 33.79769 | -113.79688 | 31892 ft | 394 kts | 286° |
| 2026-05-06 01:33 | 33.81852 | -113.85807 | 31882 ft | 400 kts | 286° |
| 2026-05-06 01:34 | 33.83997 | -113.92134 | 31875 ft | 417 kts | 287° |
| 2026-05-06 01:34 | 33.86227 | -113.98708 | 31866 ft | 431 kts | 287° |
| 2026-05-06 01:35 | 33.88519 | -114.05465 | 31865 ft | 441 kts | 287° |
| 2026-05-06 01:35 | 33.90774 | -114.12380 | 31851 ft | 443 kts | 282° |
| 2026-05-06 01:36 | 33.92088 | -114.19587 | 31852 ft | 440 kts | 277° |
| 2026-05-06 01:36 | 33.93198 | -114.26793 | 31847 ft | 441 kts | 277° |
| 2026-05-06 01:37 | 33.94366 | -114.34062 | 31852 ft | 443 kts | 278° |
| 2026-05-06 01:37 | 33.95582 | -114.41352 | 31840 ft | 445 kts | 278° |
| 2026-05-06 01:38 | 33.96812 | -114.48659 | 31855 ft | 446 kts | 278° |
| 2026-05-06 01:38 | 33.98041 | -114.55988 | 31850 ft | 447 kts | 279° |
| 2026-05-06 01:39 | 33.99267 | -114.63342 | 31848 ft | 448 kts | 279° |
| 2026-05-06 01:39 | 34.00493 | -114.70727 | 31853 ft | 450 kts | 279° |
| 2026-05-06 01:40 | 34.01719 | -114.78138 | 31847 ft | 451 kts | 279° |
| 2026-05-06 01:40 | 34.02943 | -114.85559 | 31855 ft | 452 kts | 279° |
| 2026-05-06 01:41 | 34.04166 | -114.93007 | 31850 ft | 454 kts | 280° |
| 2026-05-06 01:41 | 34.05390 | -115.00486 | 31855 ft | 456 kts | 280° |
| 2026-05-06 01:42 | 34.06488 | -115.07235 | 31852 ft | 457 kts | 280° |
| 2026-05-06 01:42 | 34.07708 | -115.14760 | 31849 ft | 458 kts | 280° |
| 2026-05-06 01:43 | 34.08922 | -115.22256 | 31859 ft | 459 kts | 280° |
| 2026-05-06 01:43 | 34.10143 | -115.29824 | 31850 ft | 460 kts | 280° |
| 2026-05-06 01:44 | 34.11363 | -115.37412 | 31851 ft | 461 kts | 280° |
| 2026-05-06 01:44 | 34.12581 | -115.45018 | 31853 ft | 462 kts | 281° |
| 2026-05-06 01:45 | 34.13797 | -115.52645 | 31853 ft | 463 kts | 281° |
| 2026-05-06 01:45 | 34.15011 | -115.60282 | 31858 ft | 464 kts | 281° |
| 2026-05-06 01:46 | 34.16202 | -115.67938 | 31856 ft | 465 kts | 278° |
| 2026-05-06 01:46 | 34.16258 | -115.71830 | 31859 ft | 466 kts | 264° |
| 2026-05-06 01:46 | 34.15844 | -115.75709 | 31869 ft | 467 kts | 263° |
| 2026-05-06 01:47 | 34.14991 | -115.83486 | 31896 ft | 468 kts | 263° |
| 2026-05-06 01:47 | 34.14216 | -115.91291 | 31913 ft | 469 kts | 264° |
| 2026-05-06 01:48 | 34.13458 | -115.99116 | 31931 ft | 469 kts | 264° |
| 2026-05-06 01:48 | 34.12694 | -116.06898 | 31939 ft | 470 kts | 264° |
| 2026-05-06 01:49 | 34.11920 | -116.14743 | 31948 ft | 471 kts | 264° |
| 2026-05-06 01:49 | 34.11146 | -116.22581 | 31934 ft | 465 kts | 264° |
| 2026-05-06 01:50 | 34.10768 | -116.26382 | 31918 ft | 446 kts | 264° |
| 2026-05-06 01:50 | 34.10403 | -116.30023 | 31913 ft | 430 kts | 264° |
| 2026-05-06 01:50 | 34.09654 | -116.37135 | 31744 ft | 427 kts | 264° |
| 2026-05-06 01:51 | 34.09270 | -116.40682 | 31325 ft | 423 kts | 264° |
| 2026-05-06 01:51 | 34.08890 | -116.44195 | 30818 ft | 421 kts | 264° |
| 2026-05-06 01:51 | 34.08514 | -116.47684 | 30343 ft | 418 kts | 264° |
| 2026-05-06 01:51 | 34.08142 | -116.51146 | 29830 ft | 416 kts | 264° |
| 2026-05-06 01:52 | 34.07769 | -116.54611 | 29233 ft | 414 kts | 264° |
| 2026-05-06 01:52 | 34.07398 | -116.58040 | 28698 ft | 411 kts | 264° |
| 2026-05-06 01:52 | 34.07046 | -116.61447 | 28142 ft | 409 kts | 265° |
| 2026-05-06 01:52 | 34.06728 | -116.64844 | 27591 ft | 407 kts | 265° |
| 2026-05-06 01:53 | 34.06423 | -116.68225 | 27073 ft | 404 kts | 265° |
| 2026-05-06 01:53 | 34.06119 | -116.71588 | 26552 ft | 402 kts | 265° |
| 2026-05-06 01:53 | 34.05813 | -116.74930 | 26067 ft | 402 kts | 265° |
| 2026-05-06 01:53 | 34.05498 | -116.78370 | 25568 ft | 419 kts | 265° |
| 2026-05-06 01:54 | 34.05171 | -116.81899 | 25188 ft | 436 kts | 265° |
| 2026-05-06 01:54 | 34.04824 | -116.85593 | 25195 ft | 440 kts | 265° |
| 2026-05-06 01:54 | 34.04480 | -116.89209 | 25146 ft | 440 kts | 264° |
| 2026-05-06 01:54 | 34.04050 | -116.92872 | 25127 ft | 443 kts | 262° |
| 2026-05-06 01:55 | 34.03547 | -116.96559 | 25101 ft | 447 kts | 262° |
| 2026-05-06 01:55 | 34.03042 | -117.00250 | 25066 ft | 444 kts | 262° |
| 2026-05-06 01:55 | 34.02565 | -117.03836 | 24973 ft | 421 kts | 263° |
| 2026-05-06 01:55 | 34.02148 | -117.07228 | 24834 ft | 399 kts | 263° |
| 2026-05-06 01:56 | 34.01764 | -117.10515 | 24426 ft | 384 kts | 263° |
| 2026-05-06 01:56 | 34.01400 | -117.13676 | 23707 ft | 381 kts | 263° |
| 2026-05-06 01:56 | 34.01039 | -117.16787 | 22837 ft | 379 kts | 263° |
| 2026-05-06 01:56 | 34.00663 | -117.19959 | 22049 ft | 374 kts | 263° |
| 2026-05-06 01:57 | 34.00295 | -117.23030 | 21339 ft | 368 kts | 263° |
| 2026-05-06 01:57 | 33.99936 | -117.26030 | 20629 ft | 363 kts | 263° |
| 2026-05-06 01:57 | 33.99572 | -117.29060 | 19905 ft | 359 kts | 263° |
| 2026-05-06 01:57 | 33.99217 | -117.32014 | 19231 ft | 354 kts | 263° |
| 2026-05-06 01:58 | 33.98877 | -117.34900 | 18554 ft | 350 kts | 264° |
| 2026-05-06 01:58 | 33.98540 | -117.37786 | 17839 ft | 346 kts | 264° |
| 2026-05-06 01:58 | 33.98246 | -117.40637 | 17056 ft | 341 kts | 271° |
| 2026-05-06 01:58 | 33.98689 | -117.43388 | 16251 ft | 334 kts | 291° |
| 2026-05-06 01:59 | 33.99113 | -117.46103 | 15559 ft | 333 kts | 268° |
| 2026-05-06 01:59 | 33.98433 | -117.48741 | 15034 ft | 331 kts | 237° |
| 2026-05-06 01:59 | 33.96813 | -117.50588 | 14853 ft | 317 kts | 209° |
| 2026-05-06 01:59 | 33.94724 | -117.51354 | 14354 ft | 315 kts | 186° |
| 2026-05-06 02:00 | 33.92545 | -117.51525 | 13861 ft | 313 kts | 182° |
| 2026-05-06 02:00 | 33.90371 | -117.51603 | 13351 ft | 310 kts | 181° |
| 2026-05-06 02:00 | 33.88223 | -117.51668 | 12777 ft | 309 kts | 181° |
| 2026-05-06 02:00 | 33.86117 | -117.52084 | 12106 ft | 310 kts | 205° |
| 2026-05-06 02:01 | 33.84440 | -117.53643 | 11485 ft | 306 kts | 236° |
| 2026-05-06 02:01 | 33.83587 | -117.55942 | 10974 ft | 299 kts | 257° |
| 2026-05-06 02:01 | 33.83130 | -117.58348 | 10784 ft | 289 kts | 260° |
| 2026-05-06 02:01 | 33.82729 | -117.60724 | 10409 ft | 290 kts | 261° |
| 2026-05-06 02:02 | 33.82334 | -117.63121 | 10110 ft | 291 kts | 261° |
| 2026-05-06 02:02 | 33.81941 | -117.65505 | 10037 ft | 291 kts | 261° |
| 2026-05-06 02:02 | 33.81546 | -117.67902 | 9990 ft | 293 kts | 261° |
| 2026-05-06 02:02 | 33.81162 | -117.70300 | 9997 ft | 291 kts | 264° |
| 2026-05-06 02:03 | 33.81352 | -117.72657 | 9679 ft | 284 kts | 296° |
| 2026-05-06 02:03 | 33.82491 | -117.74500 | 9408 ft | 271 kts | 318° |
| 2026-05-06 02:03 | 33.83867 | -117.76019 | 9064 ft | 266 kts | 320° |
| 2026-05-06 02:03 | 33.85201 | -117.77537 | 8739 ft | 262 kts | 317° |
| 2026-05-06 02:04 | 33.86459 | -117.79114 | 8439 ft | 260 kts | 314° |
| 2026-05-06 02:04 | 33.87650 | -117.80734 | 8140 ft | 257 kts | 312° |
| 2026-05-06 02:04 | 33.88793 | -117.82385 | 7839 ft | 256 kts | 310° |
| 2026-05-06 02:04 | 33.89895 | -117.84044 | 7556 ft | 253 kts | 309° |
| 2026-05-06 02:05 | 33.90962 | -117.85690 | 7274 ft | 252 kts | 309° |
| 2026-05-06 02:05 | 33.92030 | -117.87363 | 6991 ft | 251 kts | 308° |
| 2026-05-06 02:05 | 33.93083 | -117.89030 | 6710 ft | 248 kts | 308° |
| 2026-05-06 02:05 | 33.94125 | -117.90691 | 6424 ft | 249 kts | 307° |
| 2026-05-06 02:06 | 33.95164 | -117.92356 | 6129 ft | 249 kts | 307° |
| 2026-05-06 02:06 | 33.96205 | -117.94029 | 5828 ft | 249 kts | 307° |
| 2026-05-06 02:06 | 33.97240 | -117.95695 | 5531 ft | 246 kts | 306° |
| 2026-05-06 02:06 | 33.98260 | -117.97339 | 5262 ft | 245 kts | 306° |
| 2026-05-06 02:07 | 33.99075 | -117.99117 | 5036 ft | 243 kts | 284° |
| 2026-05-06 02:07 | 33.99200 | -118.01131 | 5019 ft | 244 kts | 266° |
| 2026-05-06 02:07 | 33.99012 | -118.03196 | 5007 ft | 249 kts | 263° |
| 2026-05-06 02:07 | 33.98782 | -118.05261 | 5002 ft | 249 kts | 263° |
| 2026-05-06 02:08 | 33.98544 | -118.07370 | 4679 ft | 259 kts | 263° |
| 2026-05-06 02:08 | 33.98318 | -118.09503 | 4324 ft | 261 kts | 263° |
| 2026-05-06 02:08 | 33.98099 | -118.11638 | 4096 ft | 255 kts | 263° |
| 2026-05-06 02:08 | 33.97912 | -118.13753 | 3932 ft | 249 kts | 264° |
| 2026-05-06 02:09 | 33.97723 | -118.15806 | 3847 ft | 239 kts | 263° |
| 2026-05-06 02:09 | 33.97527 | -118.17735 | 3748 ft | 231 kts | 263° |
| 2026-05-06 02:09 | 33.97328 | -118.19640 | 3498 ft | 228 kts | 262° |
| 2026-05-06 02:09 | 33.97131 | -118.21527 | 3202 ft | 225 kts | 263° |
| 2026-05-06 02:10 | 33.96939 | -118.23373 | 2910 ft | 218 kts | 263° |
| 2026-05-06 02:10 | 33.96754 | -118.25159 | 2622 ft | 212 kts | 263° |
| 2026-05-06 02:10 | 33.96576 | -118.26891 | 2347 ft | 206 kts | 263° |
| 2026-05-06 02:10 | 33.96401 | -118.28583 | 2057 ft | 201 kts | 262° |
| 2026-05-06 02:11 | 33.96233 | -118.30205 | 1821 ft | 189 kts | 263° |
| 2026-05-06 02:11 | 33.96079 | -118.31706 | 1561 ft | 172 kts | 262° |
| 2026-05-06 02:11 | 33.95939 | -118.33065 | 1326 ft | 155 kts | 263° |
| 2026-05-06 02:11 | 33.95809 | -118.34331 | 1116 ft | 153 kts | 262° |
| 2026-05-06 02:12 | 33.95676 | -118.35631 | 760 ft | 163 kts | 262° |
| 2026-05-06 02:12 | 33.95530 | -118.37013 | 492 ft | 168 kts | 263° |
| 2026-05-06 02:12 | 33.95386 | -118.38419 | 326 ft | 169 kts | 263° |
| 2026-05-06 02:12 | 33.95253 | -118.39812 | 192 ft | 167 kts | 262° |
| 2026-05-06 02:13 | 33.95110 | -118.41169 | 127 ft | 157 kts | 262° |
| 2026-05-06 02:13 | 33.94988 | -118.42343 | 121 ft | 120 kts | 263° |
| 2026-05-06 02:13 | 33.94937 | -118.42837 | 125 ft | 35 kts | 266° |
| 2026-05-06 02:13 | 33.94898 | -118.43079 | 122 ft | 23 kts | 238° |
| 2026-05-06 02:14 | 33.94821 | -118.43092 | 122 ft | 0 kts | 169° |
| 2026-05-06 02:14 | 33.94818 | -118.43091 | 123 ft | 4 kts | 169° |
| 2026-05-06 02:15 | 33.94647 | -118.42999 | 125 ft | 49 kts | 126° |
| 2026-05-06 02:15 | 33.94644 | -118.42618 | 125 ft | 50 kts | 82° |
| 2026-05-06 02:15 | 33.94693 | -118.42139 | 125 ft | 63 kts | 83° |
| 2026-05-06 02:15 | 33.94752 | -118.41592 | 124 ft | 70 kts | 82° |
| 2026-05-06 02:16 | 33.94827 | -118.40986 | 123 ft | 76 kts | 82° |
| 2026-05-06 02:16 | 33.94880 | -118.40444 | 125 ft | 30 kts | 83° |
| 2026-05-06 02:16 | 33.94841 | -118.40270 | 125 ft | 24 kts | 128° |
| 2026-05-06 02:16 | 33.94820 | -118.40195 | 123 ft | 0 kts | 112° |
| 2026-05-06 02:17 | 33.94818 | -118.40194 | 122 ft | 1 kts | 142° |
| 2026-05-06 02:17 | 33.94786 | -118.40171 | 121 ft | 0 kts | 140° |